sensor_id;sensor_type;location;lat;lon;timestamp;P1;durP1;ratioP1;P2;durP2;ratioP2
41115;SDS011;26861;51.824;4.682;2023-01-10T00:01:41;6.93;;;1.10;;
41115;SDS011;26861;51.824;4.682;2023-01-10T00:04:08;4.78;;;1.13;;
41115;SDS011;26861;51.824;4.682;2023-01-10T00:06:34;5.40;;;1.10;;
41115;SDS011;26861;51.824;4.682;2023-01-10T00:09:00;3.53;;;0.88;;
41115;SDS011;26861;51.824;4.682;2023-01-10T00:11:26;2.50;;;0.80;;
41115;SDS011;26861;51.824;4.682;2023-01-10T00:14:10;4.70;;;1.05;;
41115;SDS011;26861;51.824;4.682;2023-01-10T00:16:36;2.78;;;1.00;;
41115;SDS011;26861;51.824;4.682;2023-01-10T00:19:03;4.45;;;0.88;;
41115;SDS011;26861;51.824;4.682;2023-01-10T00:21:29;6.55;;;1.30;;
41115;SDS011;26861;51.824;4.682;2023-01-10T00:23:55;5.15;;;1.23;;
41115;SDS011;26861;51.824;4.682;2023-01-10T00:26:32;5.07;;;1.30;;
41115;SDS011;26861;51.824;4.682;2023-01-10T00:28:58;4.85;;;1.08;;
41115;SDS011;26861;51.824;4.682;2023-01-10T00:31:24;5.95;;;1.20;;
41115;SDS011;26861;51.824;4.682;2023-01-10T00:33:50;3.70;;;1.02;;
41115;SDS011;26861;51.824;4.682;2023-01-10T00:36:16;3.10;;;0.88;;
41115;SDS011;26861;51.824;4.682;2023-01-10T00:38:42;5.30;;;1.20;;
41115;SDS011;26861;51.824;4.682;2023-01-10T00:41:08;3.20;;;1.15;;
41115;SDS011;26861;51.824;4.682;2023-01-10T00:43:54;7.32;;;1.60;;
41115;SDS011;26861;51.824;4.682;2023-01-10T00:46:22;3.88;;;1.33;;
41115;SDS011;26861;51.824;4.682;2023-01-10T00:48:48;4.97;;;1.00;;
41115;SDS011;26861;51.824;4.682;2023-01-10T00:51:14;5.45;;;1.10;;
41115;SDS011;26861;51.824;4.682;2023-01-10T00:53:40;4.35;;;1.30;;
41115;SDS011;26861;51.824;4.682;2023-01-10T00:56:06;3.53;;;0.75;;
41115;SDS011;26861;51.824;4.682;2023-01-10T00:58:32;3.20;;;1.17;;
41115;SDS011;26861;51.824;4.682;2023-01-10T01:00:58;4.22;;;1.42;;
41115;SDS011;26861;51.824;4.682;2023-01-10T01:03:24;8.13;;;1.45;;
41115;SDS011;26861;51.824;4.682;2023-01-10T01:05:50;4.47;;;1.05;;
41115;SDS011;26861;51.824;4.682;2023-01-10T01:08:17;3.55;;;0.90;;
41115;SDS011;26861;51.824;4.682;2023-01-10T01:10:43;7.78;;;1.33;;
41115;SDS011;26861;51.824;4.682;2023-01-10T01:13:14;5.63;;;1.30;;
41115;SDS011;26861;51.824;4.682;2023-01-10T01:15:41;5.05;;;1.55;;
41115;SDS011;26861;51.824;4.682;2023-01-10T01:18:08;5.03;;;1.23;;
41115;SDS011;26861;51.824;4.682;2023-01-10T01:20:39;2.97;;;1.23;;
41115;SDS011;26861;51.824;4.682;2023-01-10T01:23:05;5.57;;;1.00;;
41115;SDS011;26861;51.824;4.682;2023-01-10T01:25:31;3.47;;;1.05;;
41115;SDS011;26861;51.824;4.682;2023-01-10T01:27:57;6.07;;;1.50;;
41115;SDS011;26861;51.824;4.682;2023-01-10T01:30:23;3.53;;;0.90;;
41115;SDS011;26861;51.824;4.682;2023-01-10T01:32:49;3.30;;;1.13;;
41115;SDS011;26861;51.824;4.682;2023-01-10T01:35:15;5.18;;;1.42;;
41115;SDS011;26861;51.824;4.682;2023-01-10T01:37:41;4.18;;;1.15;;
41115;SDS011;26861;51.824;4.682;2023-01-10T01:40:12;4.53;;;1.65;;
41115;SDS011;26861;51.824;4.682;2023-01-10T01:42:42;6.40;;;1.15;;
41115;SDS011;26861;51.824;4.682;2023-01-10T01:50:27;5.18;;;1.50;;
41115;SDS011;26861;51.824;4.682;2023-01-10T01:53:10;3.90;;;1.17;;
41115;SDS011;26861;51.824;4.682;2023-01-10T01:55:40;5.53;;;1.17;;
41115;SDS011;26861;51.824;4.682;2023-01-10T01:58:14;4.65;;;1.10;;
41115;SDS011;26861;51.824;4.682;2023-01-10T02:00:44;5.55;;;1.45;;
41115;SDS011;26861;51.824;4.682;2023-01-10T02:03:10;8.45;;;1.27;;
41115;SDS011;26861;51.824;4.682;2023-01-10T02:05:36;6.35;;;1.77;;
41115;SDS011;26861;51.824;4.682;2023-01-10T02:08:04;4.50;;;1.30;;
41115;SDS011;26861;51.824;4.682;2023-01-10T02:10:32;4.95;;;1.52;;
41115;SDS011;26861;51.824;4.682;2023-01-10T02:13:06;5.00;;;1.40;;
41115;SDS011;26861;51.824;4.682;2023-01-10T02:15:35;5.85;;;1.38;;
41115;SDS011;26861;51.824;4.682;2023-01-10T02:18:01;4.55;;;1.30;;
41115;SDS011;26861;51.824;4.682;2023-01-10T02:20:29;3.60;;;1.10;;
41115;SDS011;26861;51.824;4.682;2023-01-10T02:39:18;5.85;;;1.40;;
41115;SDS011;26861;51.824;4.682;2023-01-10T02:41:56;4.75;;;1.40;;
41115;SDS011;26861;51.824;4.682;2023-01-10T02:44:34;3.60;;;1.10;;
41115;SDS011;26861;51.824;4.682;2023-01-10T02:47:04;6.93;;;1.20;;
41115;SDS011;26861;51.824;4.682;2023-01-10T02:49:40;6.40;;;1.58;;
41115;SDS011;26861;51.824;4.682;2023-01-10T02:52:10;5.43;;;1.20;;
41115;SDS011;26861;51.824;4.682;2023-01-10T02:54:39;6.50;;;1.92;;
41115;SDS011;26861;51.824;4.682;2023-01-10T03:08:00;4.65;;;1.58;;
41115;SDS011;26861;51.824;4.682;2023-01-10T03:13:38;8.40;;;1.92;;
41115;SDS011;26861;51.824;4.682;2023-01-10T03:16:18;8.75;;;1.40;;
41115;SDS011;26861;51.824;4.682;2023-01-10T03:18:50;8.32;;;1.88;;
41115;SDS011;26861;51.824;4.682;2023-01-10T03:21:22;7.22;;;1.55;;
41115;SDS011;26861;51.824;4.682;2023-01-10T03:23:49;8.23;;;1.65;;
41115;SDS011;26861;51.824;4.682;2023-01-10T03:26:22;4.70;;;1.33;;
41115;SDS011;26861;51.824;4.682;2023-01-10T03:29:01;6.50;;;1.88;;
41115;SDS011;26861;51.824;4.682;2023-01-10T03:31:50;7.85;;;1.35;;
41115;SDS011;26861;51.824;4.682;2023-01-10T03:34:20;5.20;;;1.75;;
41115;SDS011;26861;51.824;4.682;2023-01-10T03:36:59;5.63;;;1.60;;
41115;SDS011;26861;51.824;4.682;2023-01-10T03:44:26;6.38;;;1.27;;
41115;SDS011;26861;51.824;4.682;2023-01-10T03:47:17;6.25;;;1.38;;
41115;SDS011;26861;51.824;4.682;2023-01-10T03:49:59;12.32;;;2.28;;
41115;SDS011;26861;51.824;4.682;2023-01-10T03:52:29;3.13;;;1.17;;
41115;SDS011;26861;51.824;4.682;2023-01-10T03:54:56;8.02;;;1.85;;
41115;SDS011;26861;51.824;4.682;2023-01-10T03:57:23;4.18;;;1.30;;
41115;SDS011;26861;51.824;4.682;2023-01-10T03:59:51;6.88;;;1.58;;
41115;SDS011;26861;51.824;4.682;2023-01-10T04:02:18;6.95;;;1.52;;
41115;SDS011;26861;51.824;4.682;2023-01-10T04:04:44;5.75;;;1.52;;
41115;SDS011;26861;51.824;4.682;2023-01-10T04:07:11;9.23;;;2.08;;
41115;SDS011;26861;51.824;4.682;2023-01-10T04:09:37;6.32;;;1.40;;
41115;SDS011;26861;51.824;4.682;2023-01-10T04:12:03;5.75;;;1.83;;
41115;SDS011;26861;51.824;4.682;2023-01-10T04:14:29;5.47;;;1.70;;
41115;SDS011;26861;51.824;4.682;2023-01-10T04:16:56;5.40;;;1.75;;
41115;SDS011;26861;51.824;4.682;2023-01-10T04:19:23;8.00;;;1.50;;
41115;SDS011;26861;51.824;4.682;2023-01-10T04:21:49;9.60;;;2.30;;
41115;SDS011;26861;51.824;4.682;2023-01-10T04:24:15;10.85;;;1.63;;
41115;SDS011;26861;51.824;4.682;2023-01-10T04:26:41;5.25;;;1.52;;
41115;SDS011;26861;51.824;4.682;2023-01-10T04:29:08;7.38;;;1.40;;
41115;SDS011;26861;51.824;4.682;2023-01-10T04:31:34;11.68;;;2.42;;
41115;SDS011;26861;51.824;4.682;2023-01-10T04:34:01;7.53;;;2.20;;
41115;SDS011;26861;51.824;4.682;2023-01-10T04:36:27;8.10;;;1.70;;
41115;SDS011;26861;51.824;4.682;2023-01-10T04:38:53;5.53;;;1.75;;
41115;SDS011;26861;51.824;4.682;2023-01-10T04:41:19;6.25;;;1.52;;
41115;SDS011;26861;51.824;4.682;2023-01-10T04:43:45;6.32;;;1.80;;
41115;SDS011;26861;51.824;4.682;2023-01-10T04:46:11;9.02;;;1.70;;
41115;SDS011;26861;51.824;4.682;2023-01-10T04:48:37;7.68;;;1.90;;
41115;SDS011;26861;51.824;4.682;2023-01-10T04:51:03;12.43;;;1.75;;
41115;SDS011;26861;51.824;4.682;2023-01-10T04:53:29;8.13;;;1.52;;
41115;SDS011;26861;51.824;4.682;2023-01-10T04:56:00;7.13;;;1.80;;
41115;SDS011;26861;51.824;4.682;2023-01-10T04:58:33;8.75;;;1.40;;
41115;SDS011;26861;51.824;4.682;2023-01-10T05:01:05;7.13;;;1.38;;
41115;SDS011;26861;51.824;4.682;2023-01-10T05:03:31;6.00;;;1.13;;
41115;SDS011;26861;51.824;4.682;2023-01-10T05:05:57;4.50;;;1.38;;
41115;SDS011;26861;51.824;4.682;2023-01-10T05:08:24;8.00;;;1.75;;
41115;SDS011;26861;51.824;4.682;2023-01-10T05:10:50;10.10;;;1.65;;
41115;SDS011;26861;51.824;4.682;2023-01-10T05:13:16;6.65;;;1.48;;
41115;SDS011;26861;51.824;4.682;2023-01-10T05:15:42;5.65;;;1.60;;
41115;SDS011;26861;51.824;4.682;2023-01-10T05:18:08;5.20;;;1.20;;
41115;SDS011;26861;51.824;4.682;2023-01-10T05:20:34;6.05;;;1.60;;
41115;SDS011;26861;51.824;4.682;2023-01-10T05:22:59;5.22;;;1.67;;
41115;SDS011;26861;51.824;4.682;2023-01-10T05:25:25;5.65;;;1.38;;
41115;SDS011;26861;51.824;4.682;2023-01-10T05:27:51;7.03;;;2.05;;
41115;SDS011;26861;51.824;4.682;2023-01-10T05:30:17;7.15;;;1.70;;
41115;SDS011;26861;51.824;4.682;2023-01-10T05:32:43;4.45;;;1.75;;
41115;SDS011;26861;51.824;4.682;2023-01-10T05:35:09;6.55;;;1.35;;
41115;SDS011;26861;51.824;4.682;2023-01-10T05:37:35;5.03;;;1.85;;
41115;SDS011;26861;51.824;4.682;2023-01-10T05:40:02;11.85;;;2.30;;
41115;SDS011;26861;51.824;4.682;2023-01-10T05:42:28;6.07;;;2.03;;
41115;SDS011;26861;51.824;4.682;2023-01-10T05:44:54;5.03;;;1.77;;
41115;SDS011;26861;51.824;4.682;2023-01-10T05:47:20;6.28;;;1.67;;
41115;SDS011;26861;51.824;4.682;2023-01-10T05:49:46;8.38;;;2.38;;
41115;SDS011;26861;51.824;4.682;2023-01-10T05:52:12;6.45;;;2.20;;
41115;SDS011;26861;51.824;4.682;2023-01-10T05:54:38;10.05;;;3.20;;
41115;SDS011;26861;51.824;4.682;2023-01-10T05:57:05;8.13;;;3.40;;
41115;SDS011;26861;51.824;4.682;2023-01-10T05:59:31;8.10;;;3.92;;
41115;SDS011;26861;51.824;4.682;2023-01-10T06:01:57;10.13;;;4.70;;
41115;SDS011;26861;51.824;4.682;2023-01-10T06:04:23;11.10;;;4.38;;
41115;SDS011;26861;51.824;4.682;2023-01-10T06:06:50;9.52;;;4.65;;
41115;SDS011;26861;51.824;4.682;2023-01-10T06:09:16;8.95;;;4.95;;
41115;SDS011;26861;51.824;4.682;2023-01-10T06:11:42;7.78;;;5.28;;
41115;SDS011;26861;51.824;4.682;2023-01-10T06:14:08;10.30;;;5.78;;
41115;SDS011;26861;51.824;4.682;2023-01-10T06:16:34;10.82;;;6.40;;
41115;SDS011;26861;51.824;4.682;2023-01-10T06:19:00;10.88;;;6.55;;
41115;SDS011;26861;51.824;4.682;2023-01-10T06:21:26;10.57;;;6.28;;
41115;SDS011;26861;51.824;4.682;2023-01-10T06:23:52;10.57;;;7.25;;
41115;SDS011;26861;51.824;4.682;2023-01-10T06:26:18;9.63;;;6.78;;
41115;SDS011;26861;51.824;4.682;2023-01-10T06:28:44;13.88;;;6.07;;
41115;SDS011;26861;51.824;4.682;2023-01-10T06:31:10;10.38;;;6.40;;
41115;SDS011;26861;51.824;4.682;2023-01-10T06:33:38;9.27;;;6.70;;
41115;SDS011;26861;51.824;4.682;2023-01-10T06:36:05;10.55;;;5.88;;
41115;SDS011;26861;51.824;4.682;2023-01-10T06:38:31;9.75;;;5.63;;
41115;SDS011;26861;51.824;4.682;2023-01-10T06:40:57;7.80;;;5.80;;
41115;SDS011;26861;51.824;4.682;2023-01-10T06:43:36;7.35;;;5.43;;
41115;SDS011;26861;51.824;4.682;2023-01-10T06:46:11;8.80;;;5.47;;
41115;SDS011;26861;51.824;4.682;2023-01-10T06:48:40;12.98;;;5.70;;
41115;SDS011;26861;51.824;4.682;2023-01-10T06:51:07;8.80;;;4.85;;
41115;SDS011;26861;51.824;4.682;2023-01-10T06:53:33;6.70;;;4.47;;
41115;SDS011;26861;51.824;4.682;2023-01-10T06:55:59;6.30;;;4.47;;
41115;SDS011;26861;51.824;4.682;2023-01-10T06:58:25;9.02;;;4.53;;
41115;SDS011;26861;51.824;4.682;2023-01-10T07:00:51;6.90;;;4.32;;
41115;SDS011;26861;51.824;4.682;2023-01-10T07:03:17;13.20;;;4.22;;
41115;SDS011;26861;51.824;4.682;2023-01-10T07:05:43;11.18;;;4.32;;
41115;SDS011;26861;51.824;4.682;2023-01-10T07:08:09;8.10;;;3.35;;
41115;SDS011;26861;51.824;4.682;2023-01-10T07:10:35;8.70;;;4.10;;
41115;SDS011;26861;51.824;4.682;2023-01-10T07:13:01;8.35;;;3.35;;
41115;SDS011;26861;51.824;4.682;2023-01-10T07:15:27;6.80;;;3.67;;
41115;SDS011;26861;51.824;4.682;2023-01-10T07:17:57;10.63;;;3.50;;
41115;SDS011;26861;51.824;4.682;2023-01-10T07:20:23;12.00;;;3.55;;
41115;SDS011;26861;51.824;4.682;2023-01-10T07:22:56;8.90;;;2.90;;
41115;SDS011;26861;51.824;4.682;2023-01-10T07:25:24;11.25;;;3.13;;
41115;SDS011;26861;51.824;4.682;2023-01-10T07:27:50;8.38;;;3.10;;
41115;SDS011;26861;51.824;4.682;2023-01-10T07:30:19;6.70;;;2.78;;
41115;SDS011;26861;51.824;4.682;2023-01-10T07:32:45;9.02;;;2.83;;
41115;SDS011;26861;51.824;4.682;2023-01-10T07:35:11;7.72;;;2.85;;
41115;SDS011;26861;51.824;4.682;2023-01-10T07:37:37;9.30;;;2.85;;
41115;SDS011;26861;51.824;4.682;2023-01-10T07:40:03;8.40;;;2.75;;
41115;SDS011;26861;51.824;4.682;2023-01-10T07:42:29;9.90;;;2.42;;
41115;SDS011;26861;51.824;4.682;2023-01-10T07:44:55;10.07;;;2.50;;
41115;SDS011;26861;51.824;4.682;2023-01-10T07:47:21;7.13;;;2.35;;
41115;SDS011;26861;51.824;4.682;2023-01-10T07:49:47;9.27;;;2.47;;
41115;SDS011;26861;51.824;4.682;2023-01-10T07:52:13;8.93;;;2.40;;
41115;SDS011;26861;51.824;4.682;2023-01-10T07:54:39;6.55;;;2.28;;
41115;SDS011;26861;51.824;4.682;2023-01-10T07:57:05;11.57;;;2.88;;
41115;SDS011;26861;51.824;4.682;2023-01-10T07:59:31;4.72;;;2.15;;
41115;SDS011;26861;51.824;4.682;2023-01-10T08:01:57;7.32;;;2.13;;
41115;SDS011;26861;51.824;4.682;2023-01-10T08:04:23;8.95;;;2.25;;
41115;SDS011;26861;51.824;4.682;2023-01-10T08:06:49;11.82;;;2.88;;
41115;SDS011;26861;51.824;4.682;2023-01-10T08:09:15;12.82;;;3.05;;
41115;SDS011;26861;51.824;4.682;2023-01-10T08:11:41;9.70;;;2.60;;
41115;SDS011;26861;51.824;4.682;2023-01-10T08:14:07;10.52;;;2.55;;
41115;SDS011;26861;51.824;4.682;2023-01-10T08:16:33;7.93;;;2.28;;
41115;SDS011;26861;51.824;4.682;2023-01-10T08:18:59;10.73;;;2.80;;
41115;SDS011;26861;51.824;4.682;2023-01-10T08:21:25;8.73;;;2.90;;
41115;SDS011;26861;51.824;4.682;2023-01-10T08:23:52;9.63;;;2.83;;
41115;SDS011;26861;51.824;4.682;2023-01-10T08:26:18;8.48;;;2.00;;
41115;SDS011;26861;51.824;4.682;2023-01-10T08:28:44;11.43;;;2.80;;
41115;SDS011;26861;51.824;4.682;2023-01-10T08:31:10;11.07;;;2.65;;
41115;SDS011;26861;51.824;4.682;2023-01-10T08:33:37;6.72;;;1.98;;
41115;SDS011;26861;51.824;4.682;2023-01-10T08:36:04;13.10;;;2.60;;
41115;SDS011;26861;51.824;4.682;2023-01-10T08:38:30;9.48;;;2.55;;
41115;SDS011;26861;51.824;4.682;2023-01-10T08:40:56;13.63;;;3.35;;
41115;SDS011;26861;51.824;4.682;2023-01-10T08:43:22;8.63;;;2.22;;
41115;SDS011;26861;51.824;4.682;2023-01-10T08:45:49;12.35;;;2.92;;
41115;SDS011;26861;51.824;4.682;2023-01-10T08:48:15;6.95;;;2.30;;
41115;SDS011;26861;51.824;4.682;2023-01-10T08:50:41;9.60;;;2.47;;
41115;SDS011;26861;51.824;4.682;2023-01-10T08:53:07;8.68;;;2.30;;
41115;SDS011;26861;51.824;4.682;2023-01-10T08:55:33;4.75;;;1.50;;
41115;SDS011;26861;51.824;4.682;2023-01-10T08:58:00;11.25;;;2.53;;
41115;SDS011;26861;51.824;4.682;2023-01-10T09:00:26;10.63;;;2.80;;
41115;SDS011;26861;51.824;4.682;2023-01-10T09:02:52;9.70;;;2.00;;
41115;SDS011;26861;51.824;4.682;2023-01-10T09:05:18;9.82;;;2.75;;
41115;SDS011;26861;51.824;4.682;2023-01-10T09:07:44;7.00;;;2.47;;
41115;SDS011;26861;51.824;4.682;2023-01-10T09:10:10;7.00;;;2.55;;
41115;SDS011;26861;51.824;4.682;2023-01-10T09:12:37;8.57;;;2.30;;
41115;SDS011;26861;51.824;4.682;2023-01-10T09:15:19;9.75;;;2.60;;
41115;SDS011;26861;51.824;4.682;2023-01-10T09:17:45;11.85;;;2.50;;
41115;SDS011;26861;51.824;4.682;2023-01-10T09:20:11;6.55;;;2.55;;
41115;SDS011;26861;51.824;4.682;2023-01-10T09:22:37;5.05;;;1.88;;
41115;SDS011;26861;51.824;4.682;2023-01-10T09:25:03;8.15;;;2.25;;
41115;SDS011;26861;51.824;4.682;2023-01-10T09:27:30;9.88;;;2.17;;
41115;SDS011;26861;51.824;4.682;2023-01-10T09:29:56;7.80;;;2.00;;
41115;SDS011;26861;51.824;4.682;2023-01-10T09:32:22;4.55;;;1.75;;
41115;SDS011;26861;51.824;4.682;2023-01-10T09:34:48;6.60;;;2.33;;
41115;SDS011;26861;51.824;4.682;2023-01-10T09:37:14;11.02;;;2.20;;
41115;SDS011;26861;51.824;4.682;2023-01-10T09:39:40;5.43;;;1.90;;
41115;SDS011;26861;51.824;4.682;2023-01-10T09:42:17;8.32;;;2.35;;
41115;SDS011;26861;51.824;4.682;2023-01-10T09:45:01;11.30;;;2.60;;
41115;SDS011;26861;51.824;4.682;2023-01-10T09:52:37;7.72;;;1.90;;
41115;SDS011;26861;51.824;4.682;2023-01-10T09:55:17;8.45;;;2.03;;
41115;SDS011;26861;51.824;4.682;2023-01-10T09:57:59;6.55;;;2.20;;
41115;SDS011;26861;51.824;4.682;2023-01-10T10:03:18;5.97;;;2.28;;
41115;SDS011;26861;51.824;4.682;2023-01-10T10:05:52;5.47;;;2.00;;
41115;SDS011;26861;51.824;4.682;2023-01-10T10:08:19;9.48;;;2.00;;
41115;SDS011;26861;51.824;4.682;2023-01-10T10:10:48;7.10;;;1.88;;
41115;SDS011;26861;51.824;4.682;2023-01-10T10:24:28;13.48;;;2.50;;
41115;SDS011;26861;51.824;4.682;2023-01-10T10:27:13;10.43;;;2.47;;
41115;SDS011;26861;51.824;4.682;2023-01-10T10:30:09;9.07;;;2.25;;
41115;SDS011;26861;51.824;4.682;2023-01-10T10:37:55;6.40;;;1.88;;
41115;SDS011;26861;51.824;4.682;2023-01-10T10:40:41;6.47;;;1.90;;
41115;SDS011;26861;51.824;4.682;2023-01-10T10:43:13;4.75;;;2.10;;
41115;SDS011;26861;51.824;4.682;2023-01-10T10:45:56;7.28;;;2.35;;
41115;SDS011;26861;51.824;4.682;2023-01-10T10:48:30;6.03;;;1.42;;
41115;SDS011;26861;51.824;4.682;2023-01-10T10:53:27;7.18;;;2.15;;
41115;SDS011;26861;51.824;4.682;2023-01-10T10:55:55;4.78;;;2.15;;
41115;SDS011;26861;51.824;4.682;2023-01-10T10:58:21;6.93;;;1.88;;
41115;SDS011;26861;51.824;4.682;2023-01-10T11:00:49;9.45;;;1.92;;
41115;SDS011;26861;51.824;4.682;2023-01-10T11:03:24;7.43;;;2.20;;
41115;SDS011;26861;51.824;4.682;2023-01-10T11:06:06;8.80;;;2.17;;
41115;SDS011;26861;51.824;4.682;2023-01-10T11:08:34;8.18;;;1.92;;
41115;SDS011;26861;51.824;4.682;2023-01-10T11:11:13;10.52;;;2.00;;
41115;SDS011;26861;51.824;4.682;2023-01-10T11:16:28;8.48;;;2.10;;
41115;SDS011;26861;51.824;4.682;2023-01-10T11:19:10;8.38;;;1.73;;
41115;SDS011;26861;51.824;4.682;2023-01-10T11:21:48;6.75;;;1.92;;
41115;SDS011;26861;51.824;4.682;2023-01-10T11:24:28;5.35;;;1.70;;
41115;SDS011;26861;51.824;4.682;2023-01-10T11:26:54;8.25;;;1.73;;
41115;SDS011;26861;51.824;4.682;2023-01-10T11:29:23;6.55;;;1.48;;
41115;SDS011;26861;51.824;4.682;2023-01-10T11:32:12;6.38;;;2.20;;
41115;SDS011;26861;51.824;4.682;2023-01-10T11:34:41;6.45;;;1.85;;
41115;SDS011;26861;51.824;4.682;2023-01-10T11:37:18;8.48;;;1.85;;
41115;SDS011;26861;51.824;4.682;2023-01-10T11:42:45;5.75;;;1.88;;
41115;SDS011;26861;51.824;4.682;2023-01-10T11:47:49;5.65;;;1.73;;
41115;SDS011;26861;51.824;4.682;2023-01-10T11:50:23;8.05;;;2.00;;
41115;SDS011;26861;51.824;4.682;2023-01-10T11:52:52;14.18;;;2.47;;
41115;SDS011;26861;51.824;4.682;2023-01-10T11:55:19;9.30;;;1.83;;
41115;SDS011;26861;51.824;4.682;2023-01-10T11:57:52;9.00;;;2.00;;
41115;SDS011;26861;51.824;4.682;2023-01-10T12:00:21;7.85;;;2.15;;
41115;SDS011;26861;51.824;4.682;2023-01-10T12:02:54;5.30;;;1.85;;
41115;SDS011;26861;51.824;4.682;2023-01-10T12:05:21;4.47;;;1.25;;
41115;SDS011;26861;51.824;4.682;2023-01-10T12:08:02;5.72;;;2.05;;
41115;SDS011;26861;51.824;4.682;2023-01-10T12:10:34;6.35;;;2.20;;
41115;SDS011;26861;51.824;4.682;2023-01-10T12:13:15;5.25;;;2.20;;
41115;SDS011;26861;51.824;4.682;2023-01-10T12:15:41;6.13;;;1.67;;
41115;SDS011;26861;51.824;4.682;2023-01-10T12:18:08;10.18;;;1.77;;
41115;SDS011;26861;51.824;4.682;2023-01-10T12:20:40;8.25;;;2.00;;
41115;SDS011;26861;51.824;4.682;2023-01-10T12:23:18;5.80;;;1.55;;
41115;SDS011;26861;51.824;4.682;2023-01-10T12:25:47;4.75;;;1.42;;
41115;SDS011;26861;51.824;4.682;2023-01-10T12:28:17;7.35;;;1.80;;
41115;SDS011;26861;51.824;4.682;2023-01-10T12:30:46;11.45;;;2.13;;
41115;SDS011;26861;51.824;4.682;2023-01-10T12:33:18;6.13;;;1.85;;
41115;SDS011;26861;51.824;4.682;2023-01-10T12:38:44;12.45;;;2.35;;
41115;SDS011;26861;51.824;4.682;2023-01-10T12:44:40;6.32;;;1.65;;
41115;SDS011;26861;51.824;4.682;2023-01-10T12:49:59;5.93;;;1.67;;
41115;SDS011;26861;51.824;4.682;2023-01-10T12:55:05;7.03;;;1.50;;
41115;SDS011;26861;51.824;4.682;2023-01-10T12:57:34;7.18;;;1.40;;
41115;SDS011;26861;51.824;4.682;2023-01-10T13:00:03;5.22;;;1.80;;
41115;SDS011;26861;51.824;4.682;2023-01-10T13:02:37;8.05;;;1.80;;
41115;SDS011;26861;51.824;4.682;2023-01-10T13:05:13;5.95;;;2.20;;
41115;SDS011;26861;51.824;4.682;2023-01-10T13:07:42;6.00;;;1.42;;
41115;SDS011;26861;51.824;4.682;2023-01-10T13:10:09;6.78;;;2.20;;
41115;SDS011;26861;51.824;4.682;2023-01-10T13:12:41;5.13;;;1.90;;
41115;SDS011;26861;51.824;4.682;2023-01-10T13:15:31;10.23;;;2.25;;
41115;SDS011;26861;51.824;4.682;2023-01-10T13:21:00;5.60;;;2.13;;
41115;SDS011;26861;51.824;4.682;2023-01-10T13:23:33;9.23;;;2.25;;
41115;SDS011;26861;51.824;4.682;2023-01-10T13:26:07;8.45;;;2.28;;
41115;SDS011;26861;51.824;4.682;2023-01-10T13:28:37;5.60;;;2.17;;
41115;SDS011;26861;51.824;4.682;2023-01-10T13:31:24;7.60;;;1.80;;
41115;SDS011;26861;51.824;4.682;2023-01-10T13:34:01;7.28;;;2.13;;
41115;SDS011;26861;51.824;4.682;2023-01-10T13:36:43;7.97;;;2.15;;
41115;SDS011;26861;51.824;4.682;2023-01-10T13:39:31;11.15;;;2.35;;
41115;SDS011;26861;51.824;4.682;2023-01-10T13:42:10;7.30;;;1.55;;
41115;SDS011;26861;51.824;4.682;2023-01-10T13:45:28;7.72;;;1.90;;
41115;SDS011;26861;51.824;4.682;2023-01-10T13:47:56;5.90;;;1.83;;
41115;SDS011;26861;51.824;4.682;2023-01-10T14:03:36;6.75;;;1.98;;
41115;SDS011;26861;51.824;4.682;2023-01-10T14:06:05;9.60;;;2.30;;
41115;SDS011;26861;51.824;4.682;2023-01-10T14:08:40;5.40;;;2.03;;
41115;SDS011;26861;51.824;4.682;2023-01-10T14:11:13;8.95;;;1.73;;
41115;SDS011;26861;51.824;4.682;2023-01-10T14:13:45;8.60;;;1.90;;
41115;SDS011;26861;51.824;4.682;2023-01-10T14:18:57;3.75;;;1.50;;
41115;SDS011;26861;51.824;4.682;2023-01-10T14:21:23;4.63;;;2.00;;
41115;SDS011;26861;51.824;4.682;2023-01-10T14:23:51;4.95;;;1.60;;
41115;SDS011;26861;51.824;4.682;2023-01-10T14:28:52;11.52;;;1.63;;
41115;SDS011;26861;51.824;4.682;2023-01-10T14:31:22;5.05;;;1.52;;
41115;SDS011;26861;51.824;4.682;2023-01-10T14:33:52;5.95;;;2.20;;
41115;SDS011;26861;51.824;4.682;2023-01-10T14:36:23;3.85;;;1.17;;
41115;SDS011;26861;51.824;4.682;2023-01-10T14:39:03;5.40;;;1.80;;
41115;SDS011;26861;51.824;4.682;2023-01-10T14:57:36;5.45;;;2.00;;
41115;SDS011;26861;51.824;4.682;2023-01-10T15:00:13;6.80;;;2.15;;
41115;SDS011;26861;51.824;4.682;2023-01-10T15:02:47;6.22;;;1.73;;
41115;SDS011;26861;51.824;4.682;2023-01-10T15:05:25;9.85;;;1.70;;
41115;SDS011;26861;51.824;4.682;2023-01-10T15:07:52;4.90;;;1.33;;
41115;SDS011;26861;51.824;4.682;2023-01-10T15:10:23;6.18;;;2.15;;
41115;SDS011;26861;51.824;4.682;2023-01-10T15:12:53;7.20;;;1.77;;
41115;SDS011;26861;51.824;4.682;2023-01-10T15:15:26;9.00;;;1.65;;
41115;SDS011;26861;51.824;4.682;2023-01-10T15:17:59;3.90;;;1.35;;
41115;SDS011;26861;51.824;4.682;2023-01-10T15:20:26;6.13;;;1.92;;
41115;SDS011;26861;51.824;4.682;2023-01-10T15:22:57;5.57;;;1.60;;
41115;SDS011;26861;51.824;4.682;2023-01-10T15:25:27;2.42;;;1.25;;
41115;SDS011;26861;51.824;4.682;2023-01-10T15:28:19;3.65;;;1.50;;
41115;SDS011;26861;51.824;4.682;2023-01-10T15:30:46;4.45;;;1.40;;
41115;SDS011;26861;51.824;4.682;2023-01-10T15:33:14;6.45;;;1.77;;
41115;SDS011;26861;51.824;4.682;2023-01-10T15:35:46;6.63;;;1.90;;
41115;SDS011;26861;51.824;4.682;2023-01-10T15:38:15;4.97;;;1.40;;
41115;SDS011;26861;51.824;4.682;2023-01-10T15:40:55;4.20;;;1.52;;
41115;SDS011;26861;51.824;4.682;2023-01-10T15:43:27;6.57;;;1.95;;
41115;SDS011;26861;51.824;4.682;2023-01-10T15:45:57;11.15;;;1.52;;
41115;SDS011;26861;51.824;4.682;2023-01-10T15:48:35;3.30;;;1.13;;
41115;SDS011;26861;51.824;4.682;2023-01-10T15:54:06;3.83;;;1.50;;
41115;SDS011;26861;51.824;4.682;2023-01-10T15:56:48;4.93;;;1.50;;
41115;SDS011;26861;51.824;4.682;2023-01-10T16:01:52;4.07;;;1.15;;
41115;SDS011;26861;51.824;4.682;2023-01-10T16:04:20;3.47;;;1.15;;
41115;SDS011;26861;51.824;4.682;2023-01-10T16:06:46;4.43;;;1.40;;
41115;SDS011;26861;51.824;4.682;2023-01-10T16:09:18;4.68;;;1.30;;
41115;SDS011;26861;51.824;4.682;2023-01-10T16:11:46;3.33;;;1.27;;
41115;SDS011;26861;51.824;4.682;2023-01-10T16:14:32;3.30;;;1.17;;
41115;SDS011;26861;51.824;4.682;2023-01-10T16:16:58;3.67;;;1.40;;
41115;SDS011;26861;51.824;4.682;2023-01-10T16:19:24;3.97;;;1.20;;
41115;SDS011;26861;51.824;4.682;2023-01-10T16:21:51;3.72;;;1.23;;
41115;SDS011;26861;51.824;4.682;2023-01-10T16:24:22;2.63;;;0.90;;
41115;SDS011;26861;51.824;4.682;2023-01-10T16:26:50;6.80;;;1.35;;
41115;SDS011;26861;51.824;4.682;2023-01-10T16:29:17;9.00;;;1.50;;
41115;SDS011;26861;51.824;4.682;2023-01-10T16:31:46;7.05;;;1.40;;
41115;SDS011;26861;51.824;4.682;2023-01-10T16:34:13;5.15;;;1.40;;
41115;SDS011;26861;51.824;4.682;2023-01-10T16:36:39;2.78;;;1.20;;
41115;SDS011;26861;51.824;4.682;2023-01-10T16:39:06;7.07;;;1.25;;
41115;SDS011;26861;51.824;4.682;2023-01-10T16:41:41;2.92;;;1.25;;
41115;SDS011;26861;51.824;4.682;2023-01-10T16:44:26;3.10;;;0.60;;
41115;SDS011;26861;51.824;4.682;2023-01-10T16:46:52;5.05;;;1.05;;
41115;SDS011;26861;51.824;4.682;2023-01-10T16:49:19;3.20;;;1.17;;
41115;SDS011;26861;51.824;4.682;2023-01-10T16:51:46;3.92;;;0.65;;
41115;SDS011;26861;51.824;4.682;2023-01-10T16:54:16;3.83;;;0.90;;
41115;SDS011;26861;51.824;4.682;2023-01-10T16:56:47;2.00;;;1.00;;
41115;SDS011;26861;51.824;4.682;2023-01-10T16:59:14;1.70;;;1.08;;
41115;SDS011;26861;51.824;4.682;2023-01-10T17:01:43;3.85;;;0.98;;
41115;SDS011;26861;51.824;4.682;2023-01-10T17:04:19;2.47;;;1.10;;
41115;SDS011;26861;51.824;4.682;2023-01-10T17:06:47;3.58;;;0.93;;
41115;SDS011;26861;51.824;4.682;2023-01-10T17:09:24;4.13;;;0.80;;
41115;SDS011;26861;51.824;4.682;2023-01-10T17:11:55;1.08;;;0.60;;